Time;durP1;ratioP1;P1;durP2;ratioP2;P2;SDS_P1;SDS_P2;PMS_P1;PMS_P2;Temp;Humidity;BMP_temperature;BMP_pressure;BME280_temperature;BME280_humidity;BME280_pressure;Samples;Min_cycle;Max_cycle;Signal;HPM_P1;HPM_P2
2022/12/09 00:01:09;;;;;;;19.90;11.97;;;4.70;99.90;;;;;;5021499;28;20453;-75
2022/12/09 00:03:35;;;;;;;18.60;12.70;;;4.60;99.90;;;;;;5036746;28;20458;-75
2022/12/09 00:06:14;;;;;;;18.90;12.67;;;4.60;99.90;;;;;;5035603;28;20422;-75
2022/12/09 00:08:40;;;;;;;21.47;12.83;;;4.60;99.90;;;;;;5033798;28;20180;-73
2022/12/09 00:11:07;;;;;;;20.17;12.17;;;4.60;99.90;;;;;;5036622;28;20450;-75
2022/12/09 00:13:33;;;;;;;18.07;12.30;;;4.50;99.90;;;;;;5038402;28;20509;-75
2022/12/09 00:15:59;;;;;;;16.47;11.87;;;4.50;99.90;;;;;;5031177;28;20968;-75
2022/12/09 00:18:24;;;;;;;21.53;12.30;;;4.50;99.90;;;;;;5038490;28;20421;-75
2022/12/09 00:20:50;;;;;;;15.20;11.00;;;4.40;99.90;;;;;;5034574;28;20208;-74
2022/12/09 00:23:16;;;;;;;15.33;9.30;;;4.50;99.90;;;;;;5032170;28;20807;-74
2022/12/09 00:25:41;;;;;;;16.70;10.33;;;4.50;99.90;;;;;;5038101;28;20254;-74
2022/12/09 00:28:07;;;;;;;17.17;10.00;;;4.40;99.90;;;;;;5033577;28;20187;-74
2022/12/09 00:30:32;;;;;;;19.00;10.93;;;4.40;99.90;;;;;;5033085;28;20745;-74
2022/12/09 00:32:58;;;;;;;16.23;11.90;;;4.40;99.90;;;;;;5039261;28;20183;-75
2022/12/09 00:35:23;;;;;;;16.73;10.90;;;4.40;99.90;;;;;;5039427;28;20208;-75
2022/12/09 00:37:49;;;;;;;15.90;11.47;;;4.40;99.90;;;;;;5034060;28;20188;-75
2022/12/09 00:40:15;;;;;;;16.20;10.50;;;4.30;99.90;;;;;;5038957;28;20176;-75
2022/12/09 00:42:41;;;;;;;14.27;10.13;;;4.30;99.90;;;;;;5038019;28;20192;-75
2022/12/09 00:45:07;;;;;;;15.53;10.20;;;4.30;99.90;;;;;;5028373;28;20461;-75
2022/12/09 00:47:33;;;;;;;13.23;9.13;;;4.30;99.90;;;;;;5037380;28;20184;-75
2022/12/09 00:49:59;;;;;;;14.53;8.77;;;4.30;99.90;;;;;;5038909;28;20525;-75
2022/12/09 00:52:25;;;;;;;11.47;8.97;;;4.30;99.90;;;;;;5034638;28;21235;-74
2022/12/09 00:54:50;;;;;;;15.83;9.13;;;4.30;99.90;;;;;;5036261;28;20230;-75
2022/12/09 00:57:16;;;;;;;14.50;10.20;;;4.20;99.90;;;;;;5037452;28;20544;-75
2022/12/09 00:59:42;;;;;;;16.00;10.90;;;4.20;99.90;;;;;;5033790;28;20685;-74
2022/12/09 01:02:07;;;;;;;14.53;9.13;;;4.20;99.90;;;;;;5039775;28;20426;-75
2022/12/09 01:04:33;;;;;;;13.10;9.63;;;4.20;99.90;;;;;;5038445;28;20219;-75
2022/12/09 01:06:58;;;;;;;14.50;9.40;;;4.10;99.90;;;;;;5034092;28;20241;-75
2022/12/09 01:09:24;;;;;;;13.47;9.17;;;4.10;99.90;;;;;;5035959;28;20183;-75
2022/12/09 01:11:50;;;;;;;14.50;9.93;;;4.10;99.90;;;;;;5039015;28;20195;-75
2022/12/09 01:14:15;;;;;;;16.73;10.57;;;4.10;99.90;;;;;;5037790;28;20247;-75
2022/12/09 01:16:41;;;;;;;14.03;9.40;;;4.10;99.90;;;;;;5037182;28;20215;-75
2022/12/09 01:19:09;;;;;;;12.97;8.80;;;4.10;99.90;;;;;;5034537;28;20571;-76
2022/12/09 01:21:35;;;;;;;13.90;9.80;;;4.00;99.90;;;;;;5033537;28;20180;-76
2022/12/09 01:24:06;;;;;;;15.10;9.27;;;4.00;99.90;;;;;;5035282;28;20529;-76
2022/12/09 01:26:31;;;;;;;13.30;9.10;;;4.00;99.90;;;;;;5032028;28;20462;-76
2022/12/09 01:28:57;;;;;;;14.60;9.80;;;4.00;99.90;;;;;;5032423;28;20466;-75
2022/12/09 01:31:24;;;;;;;11.97;9.03;;;4.00;99.90;;;;;;5035603;28;20189;-76
2022/12/09 01:33:50;;;;;;;12.63;8.30;;;4.00;99.90;;;;;;5032420;28;20200;-76
2022/12/09 01:36:19;;;;;;;15.43;9.80;;;4.00;99.90;;;;;;5034740;28;20797;-76
2022/12/09 01:38:46;;;;;;;16.73;9.30;;;4.00;99.90;;;;;;5033780;28;20600;-76
2022/12/09 01:41:12;;;;;;;14.13;9.60;;;3.90;99.90;;;;;;5035990;28;20430;-75
2022/12/09 01:43:38;;;;;;;12.63;8.30;;;3.90;99.90;;;;;;5036522;28;20535;-75
2022/12/09 01:46:05;;;;;;;14.63;8.40;;;3.80;99.90;;;;;;5033709;28;20485;-76
2022/12/09 01:48:33;;;;;;;13.10;8.97;;;3.80;99.90;;;;;;5035936;28;20529;-74
2022/12/09 01:51:15;;;;;;;11.70;8.10;;;3.80;99.90;;;;;;5031445;28;20446;-74
2022/12/09 01:53:44;;;;;;;9.60;7.40;;;3.70;99.90;;;;;;5033554;28;20991;-74
2022/12/09 01:56:27;;;;;;;10.87;7.27;;;3.80;99.90;;;;;;5035842;28;20497;-76
2022/12/09 01:58:53;;;;;;;8.80;6.23;;;3.70;99.90;;;;;;5034148;28;20438;-75
2022/12/09 02:01:20;;;;;;;8.80;7.13;;;3.80;99.90;;;;;;5036255;28;20468;-74
2022/12/09 02:03:46;;;;;;;10.43;7.40;;;3.80;99.90;;;;;;5034137;28;20461;-75
2022/12/09 02:06:12;;;;;;;9.80;6.90;;;3.70;99.90;;;;;;5038122;28;20549;-75
2022/12/09 02:08:38;;;;;;;10.03;6.80;;;3.70;99.90;;;;;;5031738;28;20529;-76
2022/12/09 02:11:33;;;;;;;8.57;5.77;;;3.70;99.90;;;;;;5038783;28;20277;-75
2022/12/09 02:14:19;;;;;;;10.23;6.70;;;3.70;99.90;;;;;;5036354;28;20216;-75
2022/12/09 02:17:21;;;;;;;11.10;6.80;;;3.70;99.90;;;;;;5033571;28;20557;-75
2022/12/09 02:20:07;;;;;;;9.33;6.43;;;3.70;99.90;;;;;;5033256;28;20511;-74
2022/12/09 02:22:52;;;;;;;10.20;6.87;;;3.60;99.90;;;;;;5031651;28;20438;-74
2022/12/09 02:25:28;;;;;;;12.70;6.30;;;3.60;99.90;;;;;;5034546;28;20483;-75
2022/12/09 02:28:31;;;;;;;8.57;5.70;;;3.60;99.90;;;;;;5029363;28;20442;-75
2022/12/09 02:31:26;;;;;;;12.53;6.40;;;3.60;99.90;;;;;;5029693;28;20448;-74
2022/12/09 02:34:11;;;;;;;9.53;6.30;;;3.60;99.90;;;;;;5034192;28;20438;-75
2022/12/09 02:36:51;;;;;;;8.20;5.37;;;3.60;99.90;;;;;;5033547;28;20461;-75
2022/12/09 02:39:23;;;;;;;8.00;5.53;;;3.50;99.90;;;;;;5038983;28;20449;-75
2022/12/09 02:41:50;;;;;;;9.00;4.80;;;3.50;99.90;;;;;;5036751;28;20875;-76
2022/12/09 02:44:19;;;;;;;6.70;5.30;;;3.50;99.90;;;;;;5023041;28;20465;-76
2022/12/09 02:46:45;;;;;;;6.73;5.17;;;3.50;99.90;;;;;;5034979;28;20423;-75
2022/12/09 02:49:13;;;;;;;7.90;5.07;;;3.50;99.90;;;;;;5035949;28;20803;-75
2022/12/09 02:51:41;;;;;;;8.77;5.70;;;3.50;99.90;;;;;;5032618;28;20442;-75
2022/12/09 02:54:13;;;;;;;6.70;5.27;;;3.50;99.90;;;;;;5037130;28;21045;-75
2022/12/09 02:56:44;;;;;;;6.80;5.10;;;3.50;99.90;;;;;;5020224;28;20512;-75
2022/12/09 02:59:09;;;;;;;7.80;6.00;;;3.50;99.90;;;;;;5031864;28;20443;-76
2022/12/09 03:01:43;;;;;;;9.73;6.23;;;3.50;99.90;;;;;;5019226;28;20430;-74
2022/12/09 03:04:16;;;;;;;8.47;5.80;;;3.50;99.90;;;;;;5033617;28;20194;-75
2022/12/09 03:06:48;;;;;;;6.87;5.03;;;3.50;99.90;;;;;;5030320;28;20473;-75
2022/12/09 03:09:20;;;;;;;8.00;5.67;;;3.40;99.90;;;;;;5033751;28;20442;-76
2022/12/09 03:11:47;;;;;;;8.47;5.80;;;3.40;99.90;;;;;;5033375;28;20453;-75
2022/12/09 03:14:21;;;;;;;7.30;5.60;;;3.30;99.90;;;;;;5032797;28;20458;-76
2022/12/09 03:17:03;;;;;;;7.10;5.57;;;3.30;99.90;;;;;;5031492;28;20509;-75
2022/12/09 03:19:51;;;;;;;8.13;6.50;;;3.30;99.90;;;;;;5033214;28;20446;-75
2022/12/09 03:22:21;;;;;;;9.10;5.90;;;3.30;99.90;;;;;;5031144;28;20551;-75
2022/12/09 03:24:55;;;;;;;9.90;5.10;;;3.30;99.90;;;;;;5034812;28;20442;-76
2022/12/09 03:27:25;;;;;;;9.60;6.13;;;3.30;99.90;;;;;;5031315;28;20429;-76
2022/12/09 03:29:51;;;;;;;9.53;6.10;;;3.20;99.90;;;;;;5032254;28;20944;-76
2022/12/09 03:32:20;;;;;;;6.93;5.03;;;3.20;99.90;;;;;;5032598;28;20435;-76
2022/12/09 03:34:48;;;;;;;6.10;5.50;;;3.20;99.90;;;;;;5029719;28;21003;-77
2022/12/09 03:37:17;;;;;;;9.13;5.70;;;3.20;99.90;;;;;;5029226;28;20470;-76
2022/12/09 03:39:44;;;;;;;7.50;4.97;;;3.20;99.90;;;;;;5032506;28;20545;-75
2022/12/09 03:42:17;;;;;;;8.03;5.60;;;3.20;99.90;;;;;;5030153;28;20449;-76
2022/12/09 03:44:48;;;;;;;8.53;6.03;;;3.20;99.90;;;;;;5035139;28;20454;-75
2022/12/09 03:47:14;;;;;;;9.80;6.87;;;3.10;99.90;;;;;;5033302;28;20442;-75
2022/12/09 03:49:40;;;;;;;10.90;6.70;;;3.00;99.90;;;;;;5035524;28;20487;-76
2022/12/09 03:52:10;;;;;;;9.40;7.20;;;3.10;99.90;;;;;;5033448;28;20535;-74
2022/12/09 03:54:45;;;;;;;9.50;6.40;;;3.10;99.90;;;;;;5034223;28;20211;-75
2022/12/09 03:57:16;;;;;;;9.27;7.47;;;3.10;99.90;;;;;;5033945;28;20564;-76
2022/12/09 03:59:45;;;;;;;9.80;6.60;;;3.10;99.90;;;;;;5034416;28;20521;-76
2022/12/09 04:02:11;;;;;;;9.17;7.00;;;3.10;99.90;;;;;;5035482;28;20441;-76
2022/12/09 04:04:41;;;;;;;9.50;6.10;;;3.10;99.90;;;;;;5035079;28;20462;-76
2022/12/09 04:07:07;;;;;;;9.70;6.60;;;3.10;99.90;;;;;;5033069;28;20183;-76
2022/12/09 04:09:33;;;;;;;9.20;7.20;;;3.10;99.90;;;;;;5033815;28;20431;-76
2022/12/09 04:11:59;;;;;;;8.50;6.30;;;3.10;99.90;;;;;;5018658;28;20429;-76
2022/12/09 04:14:24;;;;;;;11.30;8.17;;;3.10;99.90;;;;;;5031490;28;20216;-77
2022/12/09 04:16:50;;;;;;;10.87;7.40;;;3.10;99.90;;;;;;5034670;28;20286;-77
2022/12/09 04:19:16;;;;;;;10.53;7.33;;;3.10;99.90;;;;;;5011779;28;20402;-77
2022/12/09 04:21:41;;;;;;;9.80;7.30;;;3.10;99.90;;;;;;5030269;28;20206;-76
2022/12/09 04:24:08;;;;;;;12.80;7.20;;;3.10;99.90;;;;;;5030385;28;20207;-76
2022/12/09 04:26:34;;;;;;;9.20;6.60;;;3.10;99.90;;;;;;5036241;28;20457;-75
2022/12/09 04:29:00;;;;;;;14.60;7.87;;;3.10;99.90;;;;;;5017895;28;21008;-75
2022/12/09 04:31:25;;;;;;;9.67;6.83;;;3.20;99.90;;;;;;5037536;28;20426;-76
2022/12/09 04:33:51;;;;;;;11.07;6.90;;;3.20;99.90;;;;;;5037098;28;20473;-76
2022/12/09 04:36:18;;;;;;;10.10;7.40;;;3.10;99.90;;;;;;5033652;28;20271;-76
2022/12/09 04:38:44;;;;;;;13.10;6.60;;;3.10;99.90;;;;;;5035926;28;20184;-76
2022/12/09 04:41:12;;;;;;;13.80;7.33;;;3.10;99.90;;;;;;5035917;28;20430;-74
2022/12/09 04:43:38;;;;;;;8.43;6.23;;;3.10;99.90;;;;;;5036962;28;20541;-74
2022/12/09 04:46:09;;;;;;;10.77;8.10;;;3.10;99.90;;;;;;5019502;28;20965;-74
2022/12/09 04:48:34;;;;;;;11.10;6.40;;;3.10;99.90;;;;;;5034456;28;20442;-76
2022/12/09 04:51:00;;;;;;;9.47;6.40;;;3.10;99.90;;;;;;5031714;28;20617;-72
2022/12/09 04:53:26;;;;;;;8.67;6.83;;;3.10;99.90;;;;;;5035798;28;20184;-74
2022/12/09 04:56:03;;;;;;;9.50;7.53;;;3.10;99.90;;;;;;5035031;28;20213;-74
2022/12/09 04:58:29;;;;;;;10.03;6.90;;;3.10;99.90;;;;;;5035322;28;20442;-74
2022/12/09 05:00:55;;;;;;;11.93;7.20;;;3.10;99.90;;;;;;5037742;28;20434;-76
2022/12/09 05:03:21;;;;;;;14.17;7.63;;;3.10;99.90;;;;;;5037462;28;20414;-76
2022/12/09 05:05:46;;;;;;;9.67;7.60;;;3.10;99.90;;;;;;5036712;28;20684;-76
2022/12/09 05:08:12;;;;;;;16.50;8.43;;;3.10;99.90;;;;;;5035464;28;20434;-76
2022/12/09 05:10:37;;;;;;;10.47;7.77;;;3.10;99.90;;;;;;5037488;28;20190;-76
2022/12/09 05:13:03;;;;;;;11.80;8.60;;;3.00;99.90;;;;;;5035804;28;20250;-74
2022/12/09 05:15:28;;;;;;;13.80;9.13;;;3.10;99.90;;;;;;5037940;28;20274;-76
2022/12/09 05:17:54;;;;;;;14.00;8.60;;;3.10;99.90;;;;;;5035350;28;20186;-76
2022/12/09 05:20:20;;;;;;;11.03;8.70;;;3.00;99.90;;;;;;5037911;28;20185;-76
2022/12/09 05:22:45;;;;;;;15.03;9.03;;;3.00;99.90;;;;;;5038062;28;20231;-76
2022/12/09 05:25:11;;;;;;;14.50;8.80;;;3.00;99.90;;;;;;5039735;28;20741;-74
2022/12/09 05:27:36;;;;;;;11.70;8.40;;;3.00;99.90;;;;;;5035524;28;20697;-75
2022/12/09 05:30:03;;;;;;;14.70;9.00;;;3.00;99.90;;;;;;5036367;28;20556;-75
2022/12/09 05:32:29;;;;;;;16.10;9.77;;;3.00;99.90;;;;;;5038796;28;20728;-75
2022/12/09 05:34:55;;;;;;;12.70;9.10;;;3.00;99.90;;;;;;5032472;28;20462;-75
2022/12/09 05:37:21;;;;;;;14.00;10.07;;;2.90;99.90;;;;;;5036618;28;20447;-74
2022/12/09 05:39:46;;;;;;;14.10;8.57;;;3.00;99.90;;;;;;5032137;28;20446;-75
2022/12/09 05:42:12;;;;;;;14.13;9.33;;;2.90;99.90;;;;;;5034748;28;20183;-74
2022/12/09 05:44:38;;;;;;;13.73;9.20;;;2.90;99.90;;;;;;5036792;28;20223;-74
2022/12/09 05:47:03;;;;;;;16.00;9.43;;;2.90;99.90;;;;;;5033357;28;20191;-74
2022/12/09 05:49:29;;;;;;;13.93;9.07;;;2.90;99.90;;;;;;5037104;28;20188;-74
2022/12/09 05:51:54;;;;;;;14.67;10.03;;;2.90;99.90;;;;;;5033768;28;20217;-75
2022/12/09 05:54:20;;;;;;;18.30;9.80;;;2.90;99.90;;;;;;5031770;28;20192;-75
2022/12/09 05:56:46;;;;;;;17.00;10.20;;;2.80;99.90;;;;;;5035303;28;20239;-75
2022/12/09 05:59:11;;;;;;;14.40;9.17;;;2.80;99.90;;;;;;5036822;28;20469;-74
2022/12/09 06:01:37;;;;;;;14.43;10.40;;;2.80;99.90;;;;;;5035070;28;20199;-74
2022/12/09 06:04:02;;;;;;;18.10;11.07;;;2.80;99.90;;;;;;5034334;28;20213;-74
2022/12/09 06:06:31;;;;;;;15.63;9.50;;;2.80;99.90;;;;;;5032713;28;20209;-74
2022/12/09 06:08:59;;;;;;;16.80;11.40;;;2.80;99.90;;;;;;5033363;28;20184;-75
2022/12/09 06:11:26;;;;;;;14.90;10.03;;;2.80;99.90;;;;;;5028497;28;20444;-75
2022/12/09 06:13:52;;;;;;;15.33;11.37;;;2.70;99.90;;;;;;5034028;28;20894;-75
2022/12/09 06:16:19;;;;;;;15.53;10.03;;;2.80;99.90;;;;;;5032386;28;20484;-74
2022/12/09 06:18:45;;;;;;;14.80;10.50;;;2.80;99.90;;;;;;5028960;28;20443;-74
2022/12/09 06:21:12;;;;;;;15.13;9.63;;;2.80;99.90;;;;;;5034197;28;20434;-75
2022/12/09 06:23:42;;;;;;;18.43;10.37;;;2.80;99.90;;;;;;5037951;28;20931;-74
2022/12/09 06:26:16;;;;;;;13.70;9.97;;;2.80;99.90;;;;;;5016259;28;20437;-74
2022/12/09 06:28:41;;;;;;;15.40;10.00;;;2.80;99.90;;;;;;5032525;28;20435;-74
2022/12/09 06:31:07;;;;;;;14.60;9.80;;;2.80;99.90;;;;;;5032310;28;20923;-74
2022/12/09 06:33:32;;;;;;;16.53;10.10;;;2.80;99.90;;;;;;5034820;28;20338;-75
2022/12/09 06:36:02;;;;;;;14.93;10.70;;;2.80;99.90;;;;;;5028960;28;20203;-76
2022/12/09 06:38:28;;;;;;;14.10;9.53;;;2.80;99.90;;;;;;5029092;28;20621;-74
2022/12/09 06:40:54;;;;;;;14.73;10.37;;;2.80;99.90;;;;;;5033586;28;20480;-75
2022/12/09 06:43:19;;;;;;;16.30;10.20;;;2.80;99.90;;;;;;5032313;28;20187;-75
2022/12/09 06:45:45;;;;;;;17.00;9.93;;;2.80;99.90;;;;;;5032609;28;20426;-75
2022/12/09 06:48:10;;;;;;;15.43;9.73;;;2.80;99.90;;;;;;5027496;28;20279;-74
2022/12/09 06:50:37;;;;;;;16.80;11.13;;;2.80;99.90;;;;;;5032530;28;20865;-76
2022/12/09 06:53:03;;;;;;;17.50;10.07;;;2.80;99.90;;;;;;5031250;28;20242;-74
2022/12/09 06:55:29;;;;;;;24.57;10.17;;;2.80;99.90;;;;;;5030213;28;20462;-74
2022/12/09 06:57:54;;;;;;;17.10;10.37;;;2.90;99.90;;;;;;5033667;28;20426;-74
2022/12/09 07:00:20;;;;;;;11.57;9.40;;;2.90;99.90;;;;;;5031319;28;20780;-75
2022/12/09 07:02:46;;;;;;;16.23;10.63;;;2.90;99.90;;;;;;5035674;28;20184;-75
2022/12/09 07:05:14;;;;;;;14.17;9.20;;;2.90;99.90;;;;;;5034518;28;21134;-74
2022/12/09 07:07:43;;;;;;;15.10;8.77;;;2.90;99.90;;;;;;5029620;28;20764;-74
2022/12/09 07:10:09;;;;;;;15.03;10.33;;;2.90;99.90;;;;;;5009616;28;20443;-73
2022/12/09 07:12:35;;;;;;;12.03;9.03;;;2.90;99.90;;;;;;5030505;28;20877;-73
2022/12/09 07:15:00;;;;;;;14.50;9.90;;;2.90;99.90;;;;;;5005517;28;20714;-75
2022/12/09 07:17:26;;;;;;;17.10;11.13;;;3.00;99.90;;;;;;5024885;28;20838;-75
2022/12/09 07:19:51;;;;;;;21.00;13.70;;;2.90;99.90;;;;;;5028481;28;20179;-76
2022/12/09 07:22:17;;;;;;;29.97;17.30;;;3.00;99.90;;;;;;5030694;28;20322;-76
2022/12/09 07:24:43;;;;;;;42.90;26.20;;;3.00;99.90;;;;;;5030575;28;20230;-75
2022/12/09 07:27:13;;;;;;;51.63;28.17;;;3.00;99.90;;;;;;5015413;28;20282;-77
2022/12/09 07:29:39;;;;;;;48.20;25.27;;;3.00;99.90;;;;;;5026928;28;20850;-76
2022/12/09 07:32:06;;;;;;;30.60;19.90;;;3.00;99.90;;;;;;5032381;28;20445;-78
2022/12/09 07:34:32;;;;;;;26.20;14.90;;;3.00;99.90;;;;;;5033117;28;20578;-80
2022/12/09 07:36:58;;;;;;;17.30;13.03;;;3.00;99.90;;;;;;5015928;28;20465;-77
2022/12/09 07:39:24;;;;;;;18.23;11.73;;;3.00;99.90;;;;;;5025459;28;20202;-75
2022/12/09 07:41:57;;;;;;;16.73;11.10;;;3.00;99.90;;;;;;5029310;28;20934;-76
2022/12/09 07:44:23;;;;;;;15.70;10.20;;;3.00;99.90;;;;;;5037581;28;20293;-79
2022/12/09 07:46:49;;;;;;;14.90;11.57;;;3.00;99.90;;;;;;5033963;28;20986;-77
2022/12/09 07:49:15;;;;;;;17.10;11.30;;;3.00;99.90;;;;;;5024175;28;20434;-74
2022/12/09 07:51:42;;;;;;;13.00;9.93;;;3.00;99.90;;;;;;5031374;28;20210;-79
2022/12/09 07:54:13;;;;;;;16.10;11.47;;;3.00;99.90;;;;;;5032522;28;20449;-79
2022/12/09 07:56:39;;;;;;;15.07;10.70;;;3.00;99.90;;;;;;5032719;28;20564;-86
2022/12/09 07:59:06;;;;;;;14.90;9.83;;;3.00;99.90;;;;;;5025926;28;20990;-82
2022/12/09 08:01:32;;;;;;;15.60;10.73;;;3.10;99.90;;;;;;5031573;28;20424;-79
2022/12/09 08:03:58;;;;;;;23.87;12.50;;;3.10;99.90;;;;;;5036070;28;20464;-80
2022/12/09 08:06:26;;;;;;;19.70;11.37;;;3.10;99.90;;;;;;5038557;28;20441;-77
2022/12/09 08:08:51;;;;;;;20.83;11.60;;;3.10;99.90;;;;;;5031425;28;20187;-78
2022/12/09 08:11:20;;;;;;;15.30;11.13;;;3.10;99.90;;;;;;5035550;28;20484;-77
2022/12/09 08:13:46;;;;;;;15.50;9.63;;;3.20;99.90;;;;;;5037528;28;20223;-77
2022/12/09 08:16:14;;;;;;;13.63;10.10;;;3.20;99.90;;;;;;5035078;28;20519;-76
2022/12/09 08:18:40;;;;;;;13.40;10.77;;;3.10;99.90;;;;;;5035814;28;20438;-76
2022/12/09 08:21:11;;;;;;;24.23;10.43;;;3.20;99.90;;;;;;5033277;28;20867;-74
2022/12/09 08:23:37;;;;;;;15.97;10.80;;;3.20;99.90;;;;;;5034699;28;20900;-77
2022/12/09 08:26:03;;;;;;;14.43;10.30;;;3.30;99.90;;;;;;5029957;28;20499;-77
2022/12/09 08:28:29;;;;;;;17.83;11.60;;;3.30;99.90;;;;;;5019095;28;20442;-77
2022/12/09 08:30:56;;;;;;;18.50;10.87;;;3.30;99.90;;;;;;5031773;28;20439;-75
2022/12/09 08:33:22;;;;;;;16.10;11.23;;;3.30;99.90;;;;;;5029031;28;20442;-76
2022/12/09 08:35:47;;;;;;;16.00;10.70;;;3.40;99.90;;;;;;5021046;28;20900;-75
2022/12/09 08:38:13;;;;;;;15.90;10.23;;;3.40;99.90;;;;;;5034535;28;21031;-75
2022/12/09 08:40:39;;;;;;;13.93;9.97;;;3.40;99.90;;;;;;5034492;28;20673;-75
2022/12/09 08:43:07;;;;;;;15.80;10.43;;;3.50;99.90;;;;;;5030228;28;20176;-74
2022/12/09 08:45:37;;;;;;;19.93;10.73;;;3.50;99.90;;;;;;5029907;28;20459;-76
2022/12/09 08:48:03;;;;;;;18.83;10.30;;;3.50;99.90;;;;;;5028169;28;20457;-74
2022/12/09 08:50:29;;;;;;;20.63;10.00;;;3.60;99.90;;;;;;5029395;28;20438;-76
2022/12/09 08:52:55;;;;;;;21.67;14.37;;;3.70;99.90;;;;;;5031384;28;20438;-76
2022/12/09 08:55:20;;;;;;;30.73;18.60;;;3.80;99.90;;;;;;5031526;28;20265;-74
2022/12/09 08:57:46;;;;;;;15.37;12.97;;;3.80;99.90;;;;;;5033597;28;20969;-74
2022/12/09 09:00:12;;;;;;;19.23;14.07;;;3.90;99.90;;;;;;5031436;28;20179;-76
2022/12/09 09:02:37;;;;;;;19.17;12.63;;;3.90;99.90;;;;;;5030462;28;20526;-81
2022/12/09 09:05:03;;;;;;;17.50;12.10;;;4.00;99.90;;;;;;5032280;28;21019;-80
2022/12/09 09:07:30;;;;;;;17.57;12.27;;;4.00;99.90;;;;;;5029144;28;20184;-76
2022/12/09 09:09:55;;;;;;;18.03;12.37;;;4.10;99.90;;;;;;5023575;28;20446;-77
2022/12/09 09:12:21;;;;;;;21.80;12.40;;;4.20;99.90;;;;;;5035552;28;20714;-77
2022/12/09 09:14:46;;;;;;;18.67;11.43;;;4.20;99.90;;;;;;5033954;28;20331;-78
2022/12/09 09:17:12;;;;;;;20.67;12.97;;;4.30;99.90;;;;;;5031486;28;20215;-73
2022/12/09 09:19:38;;;;;;;18.43;12.90;;;4.40;99.90;;;;;;5030663;28;20731;-71
2022/12/09 09:22:04;;;;;;;15.03;11.40;;;4.40;99.90;;;;;;5036098;28;20694;-81
2022/12/09 09:24:30;;;;;;;15.50;10.57;;;4.50;99.90;;;;;;5034641;28;20450;-77
2022/12/09 09:26:56;;;;;;;14.00;11.00;;;4.60;99.90;;;;;;5035948;28;20625;-79
2022/12/09 09:29:22;;;;;;;14.03;11.03;;;4.70;99.90;;;;;;5033974;28;20192;-76
2022/12/09 09:31:52;;;;;;;17.57;11.13;;;4.70;99.90;;;;;;5035029;28;20180;-76
2022/12/09 09:34:19;;;;;;;15.97;12.07;;;4.80;99.90;;;;;;5032046;28;20564;-75
2022/12/09 09:36:45;;;;;;;16.80;11.53;;;4.80;99.90;;;;;;5024547;28;20564;-75
2022/12/09 09:39:10;;;;;;;15.20;12.00;;;4.80;99.90;;;;;;5020199;28;20537;-76
2022/12/09 09:42:05;;;;;;;20.40;13.17;;;4.80;99.90;;;;;;5011992;28;20197;-75
2022/12/09 09:44:47;;;;;;;17.23;12.43;;;4.80;99.90;;;;;;5032438;28;20216;-75
2022/12/09 09:47:32;;;;;;;16.07;11.77;;;4.80;99.90;;;;;;5029220;28;20446;-75
2022/12/09 09:50:01;;;;;;;20.20;15.60;;;4.70;99.90;;;;;;5023656;28;20434;-74
2022/12/09 09:52:28;;;;;;;22.77;15.80;;;4.80;99.90;;;;;;5031743;28;20626;-76
2022/12/09 09:54:54;;;;;;;21.30;15.50;;;4.70;99.90;;;;;;5026452;28;20474;-71
2022/12/09 09:57:38;;;;;;;23.80;18.83;;;4.80;99.90;;;;;;5031332;28;20874;-73
2022/12/09 10:00:28;;;;;;;24.27;16.87;;;4.80;99.90;;;;;;5009049;28;20446;-75
2022/12/09 10:03:09;;;;;;;24.70;17.07;;;4.80;99.90;;;;;;5026847;28;20844;-76
2022/12/09 10:06:22;;;;;;;24.50;15.60;;;4.90;99.90;;;;;;5028998;28;20508;-75
2022/12/09 10:09:09;;;;;;;24.83;15.87;;;4.90;99.90;;;;;;5021242;28;20819;-75
2022/12/09 10:11:34;;;;;;;22.97;15.50;;;4.80;99.90;;;;;;5012332;28;20480;-76
2022/12/09 10:14:07;;;;;;;18.47;14.47;;;4.80;99.90;;;;;;5039144;28;20583;-77
2022/12/09 10:16:51;;;;;;;28.40;16.10;;;4.80;99.90;;;;;;5033439;28;20215;-76
2022/12/09 10:19:33;;;;;;;19.83;14.87;;;4.80;99.90;;;;;;5033166;28;20477;-74
2022/12/09 10:22:10;;;;;;;27.33;14.93;;;4.80;99.90;;;;;;5031424;28;20925;-75
2022/12/09 10:24:41;;;;;;;22.60;14.47;;;4.80;99.90;;;;;;5033645;28;20442;-75
2022/12/09 10:27:07;;;;;;;24.37;15.93;;;4.80;99.90;;;;;;5030389;28;20441;-75
2022/12/09 10:29:42;;;;;;;21.47;16.03;;;4.80;99.90;;;;;;5034669;28;20438;-77
2022/12/09 10:32:14;;;;;;;19.70;14.57;;;4.80;99.90;;;;;;5030680;28;20196;-76
2022/12/09 10:34:40;;;;;;;19.63;13.83;;;4.80;99.90;;;;;;5034870;28;20569;-73
2022/12/09 10:37:17;;;;;;;19.23;15.50;;;4.80;99.90;;;;;;5035111;28;21058;-73
2022/12/09 10:39:45;;;;;;;24.53;15.43;;;4.90;99.90;;;;;;5032204;28;20845;-75
2022/12/09 10:45:06;;;;;;;25.23;14.90;;;5.10;99.90;;;;;;5030268;28;20504;-72
2022/12/09 10:47:31;;;;;;;21.03;14.87;;;5.20;99.90;;;;;;5034833;28;20473;-78
2022/12/09 10:49:58;;;;;;;15.93;12.00;;;5.30;99.90;;;;;;5034712;28;20480;-75
2022/12/09 10:52:28;;;;;;;18.50;14.73;;;5.30;99.90;;;;;;5030198;28;20623;-74
2022/12/09 10:54:54;;;;;;;20.83;13.17;;;5.30;99.90;;;;;;5031481;28;20485;-73
2022/12/09 10:57:23;;;;;;;17.63;12.67;;;5.40;99.90;;;;;;5031007;28;20500;-74
2022/12/09 11:00:19;;;;;;;18.13;13.27;;;5.40;99.90;;;;;;5033507;28;20481;-74
2022/12/09 11:02:53;;;;;;;19.10;13.37;;;5.40;99.90;;;;;;5029310;28;20454;-76
2022/12/09 11:05:26;;;;;;;17.57;13.73;;;5.50;99.90;;;;;;5030933;28;20453;-77
2022/12/09 11:07:53;;;;;;;19.80;14.57;;;5.50;99.90;;;;;;5032460;28;20588;-76
2022/12/09 11:10:21;;;;;;;20.13;14.93;;;5.60;99.90;;;;;;5032712;28;20429;-75
2022/12/09 11:12:51;;;;;;;18.97;13.23;;;5.60;99.90;;;;;;5031320;28;20501;-75
2022/12/09 11:15:25;;;;;;;22.63;15.63;;;5.60;99.90;;;;;;5016014;28;20564;-76
2022/12/09 11:18:01;;;;;;;20.57;13.57;;;5.70;99.90;;;;;;5032849;28;20438;-76
2022/12/09 11:20:28;;;;;;;18.53;13.83;;;5.70;99.90;;;;;;5028837;28;20495;-76
2022/12/09 11:23:01;;;;;;;22.20;14.20;;;5.70;99.90;;;;;;5031048;28;20480;-76
2022/12/09 11:25:30;;;;;;;21.70;15.50;;;5.70;99.90;;;;;;5028905;28;20454;-76
2022/12/09 11:28:04;;;;;;;20.20;14.80;;;5.70;99.90;;;;;;5029936;28;20446;-76
2022/12/09 11:30:48;;;;;;;19.87;14.23;;;5.80;99.90;;;;;;5030183;28;20468;-75
2022/12/09 11:33:14;;;;;;;26.00;15.00;;;5.90;99.90;;;;;;5031976;28;20524;-75
2022/12/09 11:35:42;;;;;;;22.20;14.20;;;6.00;99.90;;;;;;5032131;28;20934;-74
2022/12/09 11:38:42;;;;;;;19.30;14.27;;;6.00;99.90;;;;;;5032549;28;20333;-75
2022/12/09 11:41:11;;;;;;;22.93;13.80;;;6.10;99.90;;;;;;5016655;28;20950;-74
2022/12/09 11:43:55;;;;;;;19.13;13.70;;;6.20;99.90;;;;;;5035687;28;20458;-73
2022/12/09 11:46:30;;;;;;;20.07;13.87;;;6.20;99.90;;;;;;5037107;28;20445;-75
2022/12/09 11:49:01;;;;;;;18.50;13.80;;;6.20;99.90;;;;;;5035469;28;20525;-74
2022/12/09 11:51:35;;;;;;;19.10;13.57;;;6.30;99.90;;;;;;5036817;28;20441;-76
2022/12/09 11:54:27;;;;;;;20.97;14.47;;;6.20;99.90;;;;;;5035330;28;20447;-75
2022/12/09 11:56:56;;;;;;;19.57;13.23;;;6.30;99.90;;;;;;4994326;28;20984;-74
2022/12/09 11:59:30;;;;;;;20.20;12.87;;;6.30;99.90;;;;;;5036063;28;20433;-74
2022/12/09 12:02:12;;;;;;;21.70;14.20;;;6.30;99.90;;;;;;5036854;28;20544;-77
2022/12/09 12:04:54;;;;;;;22.03;14.50;;;6.20;99.90;;;;;;5039990;28;20978;-75
2022/12/09 12:07:51;;;;;;;20.60;14.10;;;6.20;99.90;;;;;;5034580;28;20435;-76
2022/12/09 12:10:26;;;;;;;22.57;15.00;;;6.10;99.90;;;;;;5037968;28;20939;-74
2022/12/09 12:13:21;;;;;;;20.67;14.53;;;6.00;99.90;;;;;;5026572;28;20893;-74
2022/12/09 12:16:05;;;;;;;20.27;12.77;;;6.00;99.90;;;;;;5037179;28;20833;-74
2022/12/09 12:18:38;;;;;;;19.47;14.60;;;6.00;99.90;;;;;;5031535;28;20461;-73
2022/12/09 12:21:19;;;;;;;19.50;13.70;;;6.00;99.90;;;;;;5030523;28;20435;-73
2022/12/09 12:23:55;;;;;;;20.70;13.70;;;6.00;99.90;;;;;;5019719;28;21052;-73
2022/12/09 12:26:46;;;;;;;19.23;12.93;;;6.00;99.90;;;;;;5037028;28;20472;-73
2022/12/09 12:29:47;;;;;;;20.73;15.13;;;6.00;99.90;;;;;;5034946;28;20503;-73
2022/12/09 12:32:36;;;;;;;21.77;14.07;;;6.10;99.90;;;;;;4977471;28;20445;-73
2022/12/09 12:35:27;;;;;;;22.40;13.97;;;6.10;99.90;;;;;;5032635;28;20480;-73
2022/12/09 12:38:06;;;;;;;20.07;14.60;;;6.20;99.90;;;;;;5034694;28;20453;-74
2022/12/09 12:41:01;;;;;;;22.53;14.60;;;6.30;99.90;;;;;;5036651;28;21055;-73
2022/12/09 12:47:08;;;;;;;17.07;12.63;;;6.50;99.90;;;;;;5022168;28;20516;-73
2022/12/09 12:49:39;;;;;;;18.47;13.50;;;6.50;99.90;;;;;;5033288;28;20517;-73
2022/12/09 12:52:22;;;;;;;19.13;13.67;;;6.60;99.90;;;;;;5016510;28;20442;-74
2022/12/09 12:54:59;;;;;;;22.23;13.70;;;6.60;99.90;;;;;;5030899;28;20457;-74
2022/12/09 12:58:00;;;;;;;20.80;14.57;;;6.70;99.90;;;;;;5033735;28;20994;-80
2022/12/09 13:00:53;;;;;;;24.13;14.70;;;6.70;99.90;;;;;;5035378;28;21148;-76
2022/12/09 13:04:00;;;;;;;20.53;14.40;;;6.70;99.90;;;;;;5023307;28;20453;-81
2022/12/09 13:06:53;;;;;;;20.50;14.80;;;6.70;99.90;;;;;;4939535;28;20846;-76